createdAt,value
2017-05-09T00:00:03.649Z,995.11
2017-05-09T00:01:13.987Z,995.19
2017-05-09T00:02:24.340Z,995.15
2017-05-09T00:03:34.681Z,995.16
2017-05-09T00:04:45.036Z,995.14
2017-05-09T00:05:55.372Z,995.13
2017-05-09T00:07:05.766Z,995.13
2017-05-09T00:08:16.111Z,995.13
2017-05-09T00:09:26.484Z,995.14
2017-05-09T00:10:36.826Z,995.09
2017-05-09T00:11:47.171Z,995.09
2017-05-09T00:12:57.525Z,995.09
2017-05-09T00:14:07.598Z,995.06
2017-05-09T00:15:17.943Z,995.08
2017-05-09T00:16:27.657Z,995.06
2017-05-09T00:17:38.003Z,995.06
2017-05-09T00:18:48.350Z,995.03
2017-05-09T00:19:58.400Z,995.04
2017-05-09T00:21:08.739Z,995.01
2017-05-09T00:22:18.786Z,995.01
2017-05-09T00:23:29.142Z,995.01
2017-05-09T00:24:39.180Z,995
2017-05-09T00:25:49.529Z,994.97
2017-05-09T00:26:59.590Z,995.03
2017-05-09T00:28:09.960Z,995.01
2017-05-09T00:29:20.304Z,995.03
2017-05-09T00:30:30.099Z,995.01
2017-05-09T00:31:40.140Z,995.04
2017-05-09T00:32:50.486Z,995.01
2017-05-09T00:34:00.890Z,995.04
2017-05-09T00:35:11.238Z,995.03
2017-05-09T00:36:21.621Z,995.03
2017-05-09T00:37:31.665Z,994.98
2017-05-09T00:38:42.253Z,995
2017-05-09T00:39:52.599Z,994.99
2017-05-09T00:41:02.322Z,995.01
2017-05-09T00:42:12.907Z,995.01
2017-05-09T00:43:23.253Z,995.02
2017-05-09T00:44:33.582Z,995
2017-05-09T00:45:43.933Z,994.99
2017-05-09T00:46:54.295Z,995
2017-05-09T00:48:04.342Z,994.98
2017-05-09T00:49:14.691Z,995
2017-05-09T00:50:25.065Z,994.97
2017-05-09T00:51:35.097Z,994.99
2017-05-09T00:52:45.164Z,994.97
2017-05-09T00:53:55.551Z,994.98
2017-05-09T00:55:05.898Z,994.96
2017-05-09T00:56:15.913Z,994.95
2017-05-09T00:57:25.948Z,994.98
2017-05-09T00:58:36.279Z,995
2017-05-09T00:59:46.324Z,995.05
2017-05-09T01:00:56.371Z,995.06
2017-05-09T01:02:06.424Z,995.06
2017-05-09T01:03:16.772Z,995.05
2017-05-09T01:04:26.801Z,995.1
2017-05-09T01:05:36.836Z,995.13
2017-05-09T01:06:47.186Z,995.09
2017-05-09T01:07:57.223Z,995.11
2017-05-09T01:09:07.554Z,995.14
2017-05-09T01:10:17.910Z,995.13
2017-05-09T01:11:28.251Z,995.11
2017-05-09T01:12:38.593Z,995.1
2017-05-09T01:13:48.930Z,995.09
2017-05-09T01:14:59.311Z,995.14
2017-05-09T01:16:09.344Z,995.06
2017-05-09T01:17:19.364Z,995.09
2017-05-09T01:18:29.700Z,995.05
2017-05-09T01:19:40.057Z,995.08
2017-05-09T01:20:50.405Z,995.08
2017-05-09T01:22:00.431Z,995.06
2017-05-09T01:23:10.772Z,995.07
2017-05-09T01:24:21.121Z,995.01
2017-05-09T01:25:31.487Z,995.06
2017-05-09T01:26:41.524Z,995.06
2017-05-09T01:27:51.561Z,995.04
2017-05-09T01:29:01.966Z,995.02
2017-05-09T01:30:12.315Z,994.96
2017-05-09T01:31:22.654Z,995.03
2017-05-09T01:32:32.716Z,994.99
2017-05-09T01:33:43.061Z,995
2017-05-09T01:34:53.416Z,994.99
2017-05-09T01:36:03.444Z,995.04
2017-05-09T01:37:13.482Z,995.02
2017-05-09T01:38:23.823Z,994.97
2017-05-09T01:39:34.167Z,995
2017-05-09T01:40:44.520Z,995
2017-05-09T01:41:54.861Z,995.01
2017-05-09T01:43:04.879Z,995.02
2017-05-09T01:44:15.249Z,995.01
2017-05-09T01:45:25.607Z,995
2017-05-09T01:46:35.952Z,995.04
2017-05-09T01:47:46.293Z,995
2017-05-09T01:48:56.689Z,994.98
2017-05-09T01:50:06.728Z,994.97
2017-05-09T01:51:16.783Z,994.97
2017-05-09T01:52:27.120Z,994.96
2017-05-09T01:53:36.840Z,994.99
2017-05-09T01:54:46.872Z,995
2017-05-09T01:55:57.234Z,995.03
2017-05-09T01:57:07.576Z,995.01
2017-05-09T01:58:17.934Z,994.98
2017-05-09T01:59:28.287Z,994.99
2017-05-09T02:00:38.323Z,994.99
2017-05-09T02:01:48.671Z,995.03
2017-05-09T02:02:59.024Z,995
2017-05-09T02:04:09.374Z,995.09
2017-05-09T02:05:19.710Z,995.12
2017-05-09T02:06:30.047Z,995.04
2017-05-09T02:07:40.394Z,995.07
2017-05-09T02:08:50.435Z,995.03
2017-05-09T02:10:00.780Z,995
2017-05-09T02:11:11.132Z,995.01
2017-05-09T02:12:21.172Z,995.03
2017-05-09T02:13:31.232Z,995
2017-05-09T02:14:41.299Z,995.01
2017-05-09T02:15:51.695Z,995
2017-05-09T02:17:01.731Z,995.01
2017-05-09T02:18:12.088Z,995.02
2017-05-09T02:19:22.495Z,995
2017-05-09T02:20:32.548Z,994.91
2017-05-09T02:21:42.912Z,994.88
2017-05-09T02:22:53.313Z,994.86
2017-05-09T02:24:03.691Z,994.88
2017-05-09T02:25:14.056Z,994.89
2017-05-09T02:26:24.412Z,994.92
2017-05-09T02:27:34.805Z,994.88
2017-05-09T02:28:45.164Z,994.95
2017-05-09T02:29:55.206Z,994.92
2017-05-09T02:31:05.563Z,994.96
2017-05-09T02:32:15.598Z,994.9
2017-05-09T02:33:25.962Z,994.85
2017-05-09T02:34:36.300Z,994.83
2017-05-09T02:35:46.641Z,994.84
2017-05-09T02:36:56.665Z,994.83
2017-05-09T02:38:07.022Z,994.87
2017-05-09T02:39:17.376Z,994.86
2017-05-09T02:40:27.087Z,994.88
2017-05-09T02:41:37.159Z,994.92
2017-05-09T02:42:47.192Z,994.94
2017-05-09T02:43:57.537Z,994.92
2017-05-09T02:45:07.557Z,994.93
2017-05-09T02:46:17.947Z,994.92
2017-05-09T02:47:28.307Z,994.96
2017-05-09T02:48:38.345Z,994.91
2017-05-09T02:49:48.690Z,994.91
2017-05-09T02:50:59.041Z,994.93
2017-05-09T02:52:09.380Z,994.92
2017-05-09T02:53:19.764Z,994.92
2017-05-09T02:54:30.106Z,994.9
2017-05-09T02:55:40.149Z,994.86
2017-05-09T02:56:50.186Z,994.91
2017-05-09T02:58:00.203Z,994.94
2017-05-09T02:59:10.558Z,994.92
2017-05-09T03:00:20.617Z,994.95
2017-05-09T03:01:30.671Z,994.94
2017-05-09T03:32:45.909Z,994.84
2017-05-09T03:33:55.935Z,994.9
2017-05-09T03:35:05.967Z,994.88
2017-05-09T03:36:16.374Z,994.89
2017-05-09T03:37:26.414Z,994.93
2017-05-09T03:38:36.803Z,994.9
2017-05-09T03:39:47.145Z,994.92
2017-05-09T03:40:57.491Z,994.92
2017-05-09T03:42:07.828Z,994.93
2017-05-09T03:43:18.191Z,994.98
2017-05-09T03:44:28.535Z,994.94
2017-05-09T03:45:38.559Z,994.97
2017-05-09T03:46:48.915Z,994.92
2017-05-09T03:47:58.609Z,994.99
2017-05-09T03:49:08.952Z,994.96
2017-05-09T03:50:18.674Z,994.96
2017-05-09T03:51:29.024Z,995.01
2017-05-09T03:52:39.081Z,995
2017-05-09T03:53:49.124Z,995.01
2017-05-09T03:54:59.467Z,995.11
2017-05-09T03:56:09.798Z,995.17
2017-05-09T03:57:20.161Z,995.25
2017-05-09T03:58:30.516Z,995.27
2017-05-09T03:59:40.882Z,995.27
2017-05-09T04:00:51.211Z,995.32
2017-05-09T04:02:01.546Z,995.26
2017-05-09T04:03:11.568Z,995.3
2017-05-09T04:04:21.913Z,995.31
2017-05-09T04:05:31.992Z,995.3
2017-05-09T04:06:42.373Z,995.35
2017-05-09T04:07:52.771Z,995.35
2017-05-09T04:09:03.157Z,995.38
2017-05-09T04:10:13.198Z,995.35
2017-05-09T04:11:23.537Z,995.39
2017-05-09T04:12:33.897Z,995.41
2017-05-09T04:13:44.243Z,995.36
2017-05-09T04:14:54.575Z,995.38
2017-05-09T04:16:04.614Z,995.43
2017-05-09T04:17:14.953Z,995.43
2017-05-09T04:18:24.975Z,995.43
2017-05-09T04:19:35.321Z,995.46
2017-05-09T04:20:45.349Z,995.5
2017-05-09T04:21:55.703Z,995.5
2017-05-09T04:23:06.035Z,995.49
2017-05-09T04:24:16.388Z,995.49
2017-05-09T04:25:26.422Z,995.46
2017-05-09T04:26:36.788Z,995.49
2017-05-09T04:27:47.149Z,995.47
2017-05-09T04:28:57.542Z,995.47
2017-05-09T04:30:07.898Z,995.45
2017-05-09T04:31:17.980Z,995.43
2017-05-09T04:32:28.326Z,995.37
2017-05-09T04:33:38.052Z,995.35
2017-05-09T04:34:48.409Z,995.38
2017-05-09T04:35:58.442Z,995.36
2017-05-09T04:37:08.801Z,995.36
2017-05-09T04:38:19.134Z,995.36
2017-05-09T04:39:29.168Z,995.4
2017-05-09T04:40:39.494Z,995.41
2017-05-09T04:41:49.547Z,995.43
2017-05-09T04:42:59.897Z,995.45
2017-05-09T04:44:10.269Z,995.51
2017-05-09T04:45:20.286Z,995.52
2017-05-09T04:46:30.626Z,995.47
2017-05-09T04:47:40.973Z,995.49
2017-05-09T04:48:51.336Z,995.51
2017-05-09T04:50:01.683Z,995.51
2017-05-09T04:51:11.722Z,995.56
2017-05-09T04:52:22.055Z,995.59
2017-05-09T04:53:31.775Z,995.62
2017-05-09T04:54:42.121Z,995.68
2017-05-09T04:55:52.155Z,995.63
2017-05-09T04:57:02.503Z,995.63
2017-05-09T04:58:12.857Z,995.68
2017-05-09T04:59:22.900Z,995.71
2017-05-09T05:00:33.268Z,995.74
2017-05-09T05:01:43.300Z,995.79
2017-05-09T05:02:53.332Z,995.78
2017-05-09T05:04:03.375Z,995.85
2017-05-09T05:05:13.715Z,995.81
2017-05-09T05:06:24.055Z,995.81
2017-05-09T05:07:34.428Z,995.87
2017-05-09T05:08:44.790Z,995.85
2017-05-09T05:09:55.152Z,995.82
2017-05-09T05:11:04.871Z,995.84
2017-05-09T05:12:15.269Z,995.86
2017-05-09T05:13:25.624Z,995.88
2017-05-09T05:14:35.973Z,995.91
2017-05-09T05:15:46.318Z,995.9
2017-05-09T05:16:56.676Z,995.91
2017-05-09T05:18:07.032Z,995.89
2017-05-09T05:19:17.397Z,995.86
2017-05-09T05:20:27.753Z,995.87
2017-05-09T05:21:38.108Z,995.86
2017-05-09T05:22:48.435Z,995.9
2017-05-09T05:23:57.843Z,995.89
2017-05-09T05:25:08.193Z,995.93
2017-05-09T05:26:18.529Z,995.96
2017-05-09T05:27:28.857Z,995.96
2017-05-09T05:28:39.200Z,995.89
2017-05-09T05:29:49.538Z,995.91
2017-05-09T05:30:59.893Z,995.93
2017-05-09T05:32:10.231Z,995.92
2017-05-09T05:33:20.564Z,995.93
2017-05-09T05:34:30.602Z,995.93
2017-05-09T05:35:40.935Z,996
2017-05-09T05:36:51.281Z,996.04
2017-05-09T05:38:01.619Z,996.02
2017-05-09T05:39:11.965Z,996.08
2017-05-09T05:40:22.332Z,996.09
2017-05-09T05:41:32.695Z,996.1
2017-05-09T05:42:43.030Z,996.08
2017-05-09T05:43:53.367Z,996.06
2017-05-09T05:45:03.720Z,995.99
2017-05-09T05:46:14.064Z,996.04
2017-05-09T05:47:24.407Z,996.06
2017-05-09T05:48:34.753Z,996.07
2017-05-09T05:49:45.095Z,996.03
2017-05-09T05:50:55.123Z,996.02
2017-05-09T05:52:05.144Z,996.03
2017-05-09T05:53:15.180Z,995.99
2017-05-09T05:54:25.217Z,996.05
2017-05-09T05:55:35.555Z,996
2017-05-09T05:56:45.931Z,996.08
2017-05-09T05:57:56.309Z,996.09
2017-05-09T05:59:06.650Z,996.2
2017-05-09T06:00:16.994Z,996.28
2017-05-09T06:01:26.756Z,996.34
2017-05-09T06:02:37.024Z,996.36
2017-05-09T06:03:47.068Z,996.37
2017-05-09T06:04:56.793Z,996.33
2017-05-09T06:06:07.155Z,996.28
2017-05-09T06:07:17.513Z,996.32
2017-05-09T06:08:27.842Z,996.35
2017-05-09T06:09:37.875Z,996.36
2017-05-09T06:10:48.228Z,996.32
2017-05-09T06:11:58.575Z,996.31
2017-05-09T06:13:08.925Z,996.31
2017-05-09T06:14:19.271Z,996.4
2017-05-09T06:15:29.319Z,996.32
2017-05-09T06:16:38.715Z,996.38
2017-05-09T06:17:49.039Z,996.38
2017-05-09T06:18:59.080Z,996.44
2017-05-09T06:20:09.116Z,996.44
2017-05-09T06:21:19.448Z,996.46
2017-05-09T06:22:29.798Z,996.52
2017-05-09T06:23:39.847Z,996.47
2017-05-09T06:24:50.210Z,996.52
2017-05-09T06:26:00.583Z,996.53
2017-05-09T06:27:10.980Z,996.5
2017-05-09T06:28:21.321Z,996.56
2017-05-09T06:29:31.369Z,996.58
2017-05-09T06:30:41.720Z,996.55
2017-05-09T06:31:51.785Z,996.59
2017-05-09T06:39:34.129Z,996.65
2017-05-09T06:40:44.180Z,996.63
2017-05-09T06:41:54.254Z,996.62
2017-05-09T06:43:04.601Z,996.66
2017-05-09T06:44:14.641Z,996.68
2017-05-09T06:45:24.985Z,996.67
2017-05-09T06:46:35.326Z,996.73
2017-05-09T06:47:45.683Z,996.69
2017-05-09T06:48:56.032Z,996.75
2017-05-09T06:50:06.068Z,996.74
2017-05-09T06:51:16.103Z,996.75
2017-05-09T06:52:26.447Z,996.74
2017-05-09T06:53:36.802Z,996.77
2017-05-09T06:54:47.134Z,996.83
2017-05-09T06:55:57.492Z,996.79
2017-05-09T06:57:07.539Z,996.77
2017-05-09T06:58:17.882Z,996.76
2017-05-09T06:59:28.247Z,996.71
2017-05-09T07:00:38.591Z,996.68
2017-05-09T07:01:48.639Z,996.7
2017-05-09T07:02:58.996Z,996.7
2017-05-09T07:04:09.341Z,996.73
2017-05-09T07:05:19.700Z,996.74
2017-05-09T07:06:30.041Z,996.65
2017-05-09T07:07:40.402Z,996.67
2017-05-09T07:08:50.474Z,996.65
2017-05-09T07:10:00.524Z,996.72
2017-05-09T07:11:10.552Z,996.68
2017-05-09T07:12:20.918Z,996.68
2017-05-09T07:13:30.633Z,996.69
2017-05-09T07:14:40.679Z,996.77
2017-05-09T07:15:51.057Z,996.79
2017-05-09T07:17:01.103Z,996.82
2017-05-09T07:18:11.444Z,996.81
2017-05-09T07:19:21.161Z,996.87
2017-05-09T07:20:31.533Z,996.88
2017-05-09T07:21:41.874Z,996.93
2017-05-09T07:22:51.916Z,996.93
2017-05-09T07:24:02.282Z,997.08
2017-05-09T07:25:12.681Z,997.03
2017-05-09T07:26:23.036Z,996.98
2017-05-09T07:27:33.377Z,997.03
2017-05-09T07:28:43.739Z,997.06
2017-05-09T07:29:53.778Z,997.11
2017-05-09T07:31:04.131Z,997.16
2017-05-09T07:32:13.851Z,997.17
2017-05-09T07:33:23.917Z,997.14
2017-05-09T07:34:33.948Z,997.22
2017-05-09T07:35:43.973Z,997.18
2017-05-09T07:36:54.014Z,997.14
2017-05-09T07:38:04.407Z,997.19
2017-05-09T07:39:14.445Z,997.16
2017-05-09T07:40:24.492Z,997.15
2017-05-09T07:41:34.203Z,997.19
2017-05-09T07:42:44.550Z,997.2
2017-05-09T07:43:54.891Z,997.22
2017-05-09T07:45:05.243Z,997.24
2017-05-09T07:46:15.583Z,997.29
2017-05-09T07:47:25.635Z,997.28
2017-05-09T07:48:35.673Z,997.34
2017-05-09T07:49:45.741Z,997.35
2017-05-09T07:50:55.783Z,997.33
2017-05-09T07:52:06.126Z,997.36
2017-05-09T07:53:16.475Z,997.34
2017-05-09T07:54:26.811Z,997.34
2017-05-09T07:55:37.156Z,997.35
2017-05-09T07:56:47.183Z,997.32
2017-05-09T07:57:57.543Z,997.35
2017-05-09T07:59:07.585Z,997.34
2017-05-09T08:00:17.940Z,997.38
2017-05-09T08:01:28.019Z,997.31
2017-05-09T08:02:38.361Z,997.37
2017-05-09T08:03:48.710Z,997.35
2017-05-09T08:04:59.054Z,997.4
2017-05-09T08:06:09.420Z,997.44
2017-05-09T08:07:19.464Z,997.41
2017-05-09T08:08:29.828Z,997.45
2017-05-09T08:09:40.159Z,997.49
2017-05-09T08:10:50.509Z,997.49
2017-05-09T08:12:00.921Z,997.55
2017-05-09T08:13:10.948Z,997.57
2017-05-09T08:14:20.995Z,997.54
2017-05-09T08:15:31.038Z,997.58
2017-05-09T08:16:41.063Z,997.56
2017-05-09T08:17:51.091Z,997.59
2017-05-09T08:19:01.446Z,997.62
2017-05-09T08:20:11.782Z,997.6
2017-05-09T08:21:21.816Z,997.54
2017-05-09T08:22:31.238Z,997.55
2017-05-09T08:23:41.288Z,997.6
2017-05-09T08:24:51.672Z,997.56
2017-05-09T08:26:01.714Z,997.57
2017-05-09T08:27:11.741Z,997.53
2017-05-09T08:28:22.102Z,997.54
2017-05-09T08:29:32.147Z,997.59
2017-05-09T08:30:42.187Z,997.54
2017-05-09T08:31:52.530Z,997.59
2017-05-09T08:33:02.884Z,997.57
2017-05-09T08:34:12.931Z,997.63
2017-05-09T08:35:22.972Z,997.63
2017-05-09T08:36:33.050Z,997.6
2017-05-09T08:37:43.381Z,997.66
2017-05-09T08:38:53.726Z,997.59
2017-05-09T08:40:04.072Z,997.63
2017-05-09T08:41:14.445Z,997.58
2017-05-09T08:42:24.790Z,997.57
2017-05-09T08:43:35.178Z,997.48
2017-05-09T08:44:45.532Z,997.46
2017-05-09T08:45:55.916Z,997.46
2017-05-09T08:47:06.266Z,997.44
2017-05-09T08:48:16.634Z,997.47
2017-05-09T08:49:26.678Z,997.47
2017-05-09T08:50:37.009Z,997.58
2017-05-09T08:51:47.059Z,997.6
2017-05-09T08:52:57.424Z,997.64
2017-05-09T08:54:07.770Z,997.63
2017-05-09T08:55:18.113Z,997.63
2017-05-09T08:56:28.469Z,997.65
2017-05-09T08:57:38.822Z,997.65
2017-05-09T08:58:48.858Z,997.64
2017-05-09T08:59:58.891Z,997.65
2017-05-09T09:01:09.250Z,997.74
2017-05-09T09:02:19.287Z,997.67
2017-05-09T09:03:29.633Z,997.7
2017-05-09T09:04:39.681Z,997.71
2017-05-09T09:05:50.289Z,997.71
2017-05-09T09:07:00.624Z,997.77
2017-05-09T09:08:10.669Z,997.81
2017-05-09T09:09:20.703Z,997.85
2017-05-09T09:10:31.059Z,997.83
2017-05-09T09:11:41.415Z,997.81
2017-05-09T09:12:51.442Z,997.92
2017-05-09T09:14:01.788Z,997.92
2017-05-09T09:15:12.131Z,997.91
2017-05-09T09:16:22.153Z,997.94
2017-05-09T09:17:32.516Z,997.9
2017-05-09T09:18:42.891Z,997.91
2017-05-09T09:19:53.277Z,997.9
2017-05-09T09:21:03.308Z,997.93
2017-05-09T09:22:13.357Z,997.92
2017-05-09T09:23:23.718Z,997.89
2017-05-09T09:24:34.074Z,997.9
2017-05-09T09:25:44.123Z,997.92
2017-05-09T09:26:53.887Z,997.91
2017-05-09T09:28:04.248Z,997.9
2017-05-09T09:29:14.596Z,997.91
2017-05-09T09:30:24.941Z,997.92
2017-05-09T09:31:34.980Z,997.94
2017-05-09T09:32:45.337Z,997.96
2017-05-09T09:33:55.686Z,997.99
2017-05-09T09:35:06.070Z,998.01
2017-05-09T09:36:16.420Z,998.02
2017-05-09T09:37:26.460Z,997.98
2017-05-09T09:38:36.822Z,997.96
2017-05-09T09:39:47.217Z,997.98
2017-05-09T09:40:57.263Z,998
2017-05-09T09:42:06.995Z,998
2017-05-09T09:43:17.353Z,997.98
2017-05-09T09:44:27.395Z,998.04
2017-05-09T09:45:37.774Z,998.05
2017-05-09T09:46:48.118Z,997.97
2017-05-09T09:47:58.164Z,998
2017-05-09T09:49:08.576Z,997.92
2017-05-09T09:50:18.918Z,997.95
2017-05-09T09:51:28.970Z,997.96
2017-05-09T09:52:39.311Z,997.98
2017-05-09T09:53:49.653Z,997.99
2017-05-09T09:54:59.699Z,998
2017-05-09T09:56:09.751Z,997.99
2017-05-09T09:57:20.134Z,997.97
2017-05-09T09:58:30.498Z,997.97
2017-05-09T09:59:40.542Z,998.01
2017-05-09T10:00:50.564Z,997.98
2017-05-09T10:02:00.625Z,998.02
2017-05-09T10:03:10.978Z,998
2017-05-09T10:04:21.345Z,997.96
2017-05-09T10:05:31.695Z,998.05
2017-05-09T10:06:41.745Z,998.12
2017-05-09T10:07:52.114Z,998.08
2017-05-09T10:09:02.156Z,998.06
2017-05-09T10:10:12.512Z,998.09
2017-05-09T10:11:22.243Z,998.12
2017-05-09T10:12:32.628Z,998.05
2017-05-09T10:13:42.668Z,998
2017-05-09T10:14:52.386Z,998.01
2017-05-09T10:16:02.432Z,998.04
2017-05-09T10:17:12.767Z,998.06
2017-05-09T10:18:22.815Z,998.09
2017-05-09T10:19:33.174Z,998.04
2017-05-09T10:20:43.526Z,998.07
2017-05-09T10:21:53.563Z,998.1
2017-05-09T10:23:03.613Z,997.98
2017-05-09T10:24:13.659Z,998
2017-05-09T10:25:23.404Z,997.94
2017-05-09T10:26:33.450Z,997.99
2017-05-09T10:27:43.842Z,997.92
2017-05-09T10:28:54.206Z,997.93
2017-05-09T10:30:03.950Z,997.92
2017-05-09T10:31:14.309Z,997.92
2017-05-09T10:32:24.673Z,997.89
2017-05-09T10:33:34.758Z,997.92
2017-05-09T10:34:44.789Z,997.86
2017-05-09T10:35:55.147Z,997.89
2017-05-09T10:37:04.893Z,997.95
2017-05-09T10:38:15.243Z,997.92
2017-05-09T10:39:25.610Z,997.9
2017-05-09T10:40:35.967Z,997.86
2017-05-09T10:41:46.346Z,997.9
2017-05-09T10:42:56.408Z,997.84
2017-05-09T10:44:06.747Z,997.84
2017-05-09T10:45:16.800Z,997.86
2017-05-09T10:46:27.171Z,997.87
2017-05-09T10:47:37.512Z,997.87
2017-05-09T10:48:47.852Z,997.83
2017-05-09T10:49:57.895Z,997.79
2017-05-09T10:51:07.924Z,997.81
2017-05-09T10:52:18.274Z,997.8
2017-05-09T10:53:28.629Z,997.78
2017-05-09T10:54:38.673Z,997.78
2017-05-09T10:55:48.706Z,997.79
2017-05-09T10:56:59.087Z,997.78
2017-05-09T10:58:08.498Z,997.76
2017-05-09T10:59:18.225Z,997.79
2017-05-09T11:00:28.591Z,997.77
2017-05-09T11:01:38.949Z,997.82
2017-05-09T11:02:49.289Z,997.75
2017-05-09T11:03:59.651Z,997.71
2017-05-09T11:05:09.698Z,997.69
2017-05-09T11:06:19.729Z,997.73
2017-05-09T11:07:29.453Z,997.68
2017-05-09T11:08:39.501Z,997.7
2017-05-09T11:09:49.864Z,997.66
2017-05-09T11:11:00.212Z,997.67
2017-05-09T11:12:10.549Z,997.66
2017-05-09T11:13:20.579Z,997.65
2017-05-09T11:14:30.304Z,997.65
2017-05-09T11:15:40.649Z,997.66
2017-05-09T11:16:50.692Z,997.7
2017-05-09T11:18:00.739Z,997.63
2017-05-09T11:19:10.755Z,997.64
2017-05-09T11:20:21.132Z,997.68
2017-05-09T11:21:31.487Z,997.69
2017-05-09T11:22:41.821Z,997.67
2017-05-09T11:23:52.195Z,997.68
2017-05-09T11:25:02.543Z,997.71
2017-05-09T11:26:12.582Z,997.71
2017-05-09T11:27:22.962Z,997.71
2017-05-09T11:28:33.007Z,997.71
2017-05-09T11:29:43.364Z,997.62
2017-05-09T11:30:53.102Z,997.63
2017-05-09T11:32:03.148Z,997.61
2017-05-09T11:33:13.565Z,997.55
2017-05-09T11:34:23.933Z,997.52
2017-05-09T11:35:34.298Z,997.51
2017-05-09T11:36:44.341Z,997.47
2017-05-09T11:37:54.700Z,997.38
2017-05-09T11:39:05.055Z,997.36
2017-05-09T11:40:15.446Z,997.37
2017-05-09T11:41:25.493Z,997.39
2017-05-09T11:42:35.541Z,997.39
2017-05-09T11:43:45.900Z,997.4
2017-05-09T11:44:56.237Z,997.49
2017-05-09T11:46:06.588Z,997.51
2017-05-09T11:47:16.978Z,997.48
2017-05-09T11:48:27.318Z,997.49
2017-05-09T11:49:37.361Z,997.55
2017-05-09T11:50:47.724Z,997.55
2017-05-09T11:51:58.085Z,997.56
2017-05-09T11:53:08.109Z,997.53
2017-05-09T11:54:18.468Z,997.56
2017-05-09T11:55:28.808Z,997.49
2017-05-09T11:56:38.865Z,997.53
2017-05-09T11:57:48.929Z,997.52
2017-05-09T11:58:58.970Z,997.48
2017-05-09T12:00:09.037Z,997.55
2017-05-09T12:01:19.092Z,997.53
2017-05-09T12:02:29.165Z,997.59
2017-05-09T12:03:39.515Z,997.5
2017-05-09T12:04:49.558Z,997.57
2017-05-09T12:05:59.929Z,997.6
2017-05-09T12:07:10.293Z,997.55
2017-05-09T12:08:20.677Z,997.54
2017-05-09T12:09:31.025Z,997.51
2017-05-09T12:10:41.390Z,997.52
2017-05-09T12:11:51.416Z,997.47
2017-05-09T12:13:01.755Z,997.48
2017-05-09T12:14:12.121Z,997.49
2017-05-09T12:15:22.188Z,997.52
2017-05-09T12:16:32.218Z,997.49
2017-05-09T12:17:42.272Z,997.5
2017-05-09T12:18:52.324Z,997.39
2017-05-09T12:20:01.734Z,997.48
2017-05-09T12:21:12.123Z,997.47
2017-05-09T12:22:22.480Z,997.43
2017-05-09T12:23:32.840Z,997.34
2017-05-09T12:24:42.875Z,997.35
2017-05-09T12:25:52.912Z,997.32
2017-05-09T12:27:02.980Z,997.25
2017-05-09T12:28:13.046Z,997.28
2017-05-09T12:29:22.824Z,997.28
2017-05-09T12:30:32.866Z,997.34
2017-05-09T12:31:43.225Z,997.32
2017-05-09T12:32:53.574Z,997.34
2017-05-09T12:34:03.605Z,997.29
2017-05-09T12:35:13.982Z,997.3
2017-05-09T12:36:24.049Z,997.32
2017-05-09T12:37:34.401Z,997.31
2017-05-09T12:38:44.766Z,997.34
2017-05-09T12:39:55.175Z,997.4
2017-05-09T12:41:04.890Z,997.26
2017-05-09T12:42:14.926Z,997.28
2017-05-09T12:43:24.652Z,997.26
2017-05-09T12:44:35.002Z,997.22
2017-05-09T12:45:45.352Z,997.11
2017-05-09T12:46:55.723Z,997.22
2017-05-09T12:48:06.071Z,997.17
2017-05-09T12:49:16.426Z,997.15
2017-05-09T12:50:26.804Z,997.15
2017-05-09T12:51:36.866Z,997.11
2017-05-09T12:52:47.247Z,997.14
2017-05-09T12:53:57.012Z,997.22
2017-05-09T12:55:07.361Z,997.21
2017-05-09T12:56:17.413Z,997.29
2017-05-09T12:57:27.445Z,997.21
2017-05-09T12:58:37.805Z,997.18
2017-05-09T12:59:47.849Z,997.26
2017-05-09T13:01:01.655Z,997.06
2017-05-09T13:02:12.056Z,997.09
2017-05-09T13:03:22.130Z,997.16
2017-05-09T13:04:32.307Z,997.07
2017-05-09T13:05:42.878Z,996.98
2017-05-09T13:06:53.220Z,997.04
2017-05-09T13:08:03.274Z,996.97
2017-05-09T13:09:13.753Z,996.94
2017-05-09T13:10:24.325Z,996.92
2017-05-09T13:11:34.689Z,996.95
2017-05-09T13:12:45.047Z,996.96
2017-05-09T13:13:55.083Z,996.93
2017-05-09T13:15:05.125Z,996.98
2017-05-09T13:16:15.473Z,996.87
2017-05-09T13:17:25.826Z,996.98
2017-05-09T13:18:35.865Z,997.1
2017-05-09T13:19:46.263Z,996.93
2017-05-09T13:20:56.619Z,997.23
2017-05-09T13:22:06.331Z,997.03
2017-05-09T13:23:16.377Z,997.12
2017-05-09T13:24:26.735Z,997.12
2017-05-09T13:25:37.129Z,997.1
2017-05-09T13:26:47.477Z,997.12
2017-05-09T13:27:57.843Z,997.04
2017-05-09T13:29:08.196Z,996.94
2017-05-09T13:30:18.553Z,997
2017-05-09T13:31:28.586Z,996.98
2017-05-09T13:32:38.632Z,997.04
2017-05-09T13:33:48.983Z,997.03
2017-05-09T13:34:59.380Z,997.07
2017-05-09T13:36:09.747Z,996.95
2017-05-09T13:37:19.825Z,996.96
2017-05-09T13:38:29.869Z,996.95
2017-05-09T13:39:39.905Z,997.02
2017-05-09T13:40:50.324Z,996.94
2017-05-09T13:42:00.686Z,996.96
2017-05-09T13:43:11.027Z,996.98
2017-05-09T13:44:21.069Z,996.9
2017-05-09T13:45:31.416Z,996.86
2017-05-09T13:46:41.766Z,996.87
2017-05-09T13:47:52.123Z,996.89
2017-05-09T13:49:02.477Z,996.83
2017-05-09T13:50:12.827Z,996.91
2017-05-09T13:51:22.859Z,996.94
2017-05-09T13:52:33.218Z,996.83
2017-05-09T13:53:43.311Z,996.84
2017-05-09T13:54:53.678Z,996.9
2017-05-09T13:56:04.040Z,996.88
2017-05-09T13:57:14.407Z,996.94
2017-05-09T13:58:24.435Z,996.76
2017-05-09T13:59:34.477Z,996.78
2017-05-09T14:00:44.842Z,996.83
2017-05-09T14:01:54.868Z,996.87
2017-05-09T14:03:05.235Z,996.85
2017-05-09T14:04:15.272Z,996.83
2017-05-09T14:05:25.675Z,996.82
2017-05-09T14:06:35.718Z,996.86
2017-05-09T14:07:46.078Z,996.86
2017-05-09T14:08:56.457Z,996.83
2017-05-09T14:10:06.801Z,996.79
2017-05-09T14:11:17.184Z,996.86
2017-05-09T14:12:27.529Z,996.92
2017-05-09T14:13:37.895Z,996.85
2017-05-09T14:14:48.259Z,996.86
2017-05-09T14:15:58.572Z,996.88
2017-05-09T14:17:08.934Z,996.82
2017-05-09T14:18:19.296Z,996.76
2017-05-09T14:19:29.352Z,996.77
2017-05-09T14:20:39.746Z,996.75
2017-05-09T14:21:49.818Z,996.7
2017-05-09T14:23:00.184Z,996.75
2017-05-09T14:24:10.540Z,996.83
2017-05-09T14:25:20.986Z,996.7
2017-05-09T14:26:31.341Z,996.83
2017-05-09T14:27:41.072Z,996.8
2017-05-09T14:28:51.136Z,996.81
2017-05-09T14:30:01.494Z,996.84
2017-05-09T14:31:11.853Z,996.82
2017-05-09T14:32:22.208Z,996.98
2017-05-09T14:33:32.286Z,996.91
2017-05-09T14:34:42.644Z,996.91
2017-05-09T14:35:52.395Z,996.91
2017-05-09T14:37:02.778Z,996.97
2017-05-09T14:38:12.820Z,996.95
2017-05-09T14:39:22.865Z,996.98
2017-05-09T14:40:33.244Z,996.95
2017-05-09T14:41:43.593Z,996.9
2017-05-09T14:42:53.641Z,996.93
2017-05-09T14:44:03.736Z,996.95
2017-05-09T14:45:14.113Z,996.93
2017-05-09T14:46:24.495Z,996.89
2017-05-09T14:47:34.869Z,996.95
2017-05-09T14:48:45.240Z,996.92
2017-05-09T14:49:55.674Z,996.9
2017-05-09T14:51:06.099Z,996.96
2017-05-09T14:52:16.482Z,996.92
2017-05-09T14:53:26.874Z,997.05
2017-05-09T14:54:37.274Z,996.97
2017-05-09T14:55:47.681Z,996.97
2017-05-09T14:56:58.083Z,996.96
2017-05-09T14:58:08.474Z,996.92
2017-05-09T14:59:18.873Z,996.98
2017-05-09T15:00:29.321Z,996.91
2017-05-09T15:01:39.369Z,996.93
2017-05-09T15:02:49.719Z,996.95
2017-05-09T15:03:59.771Z,997.01
2017-05-09T15:05:09.829Z,996.93
2017-05-09T15:06:19.563Z,997.01
2017-05-09T15:07:29.942Z,996.99
2017-05-09T15:08:40.314Z,997.06
2017-05-09T15:09:50.378Z,997.02
2017-05-09T15:11:00.744Z,997.11
2017-05-09T15:12:11.099Z,997.04
2017-05-09T15:13:21.460Z,997.05
2017-05-09T15:14:31.498Z,997.15
2017-05-09T15:15:41.544Z,997.01
2017-05-09T15:16:51.292Z,997.06